Portada
METAR-TAF:

METAR-TAF

Aeroports :

Mandalay, Myanmar

latitud: 21-59N, longitud: 096-06E, altitud: 74 m

Observació

L'informe es va fer fa 31 minuts, a les 19:30 UTC
Vent 5 kt del Nord-Oest
Temperatura 23°C
Humitat 89%
Pressió 1013 hPa
Visibilitat: 5000 m
Escasses núvols a una alçada de 2500 ft
calitja

METAR: VYMD 131930Z 31005KT 5000 HZ FEW025 23/21 Q1013

Hora: 02:31 (20:01 UTC)

Pronòstic

L'informe es va fer fa 3 hores i 1 minuts, a les 17:00 UTC
Pronòstic vàlid del 13 a les 18 UTC al 14 a les 18 UTC
Vent 6 kt del Nord/Nord-Oest
Visibilitat: 6000 m
Núvols disperses a una alçada de 2000 ft
Núvols disperses a una alçada de 12000 ft
Temporalment
l' 13 a les 18 UTC al 13 a les 24 UTC
Vent 6 kt del Nord/Nord-Oest
Visibilitat: 5000 m
Núvols disperses a una alçada de 2000 ft
calitja

TAF: VYMD 131700Z 1318/1418 33006KT 6000 SCT020 SCT120 TEMPO 1318/1324 34006KT 5000 HZ SCT020

Observacions i pronòstics meteorològics de més de 4000 aeroports (METAR i TAF).

Les estacions disponibles són els punts grocs i vermells al mapa.

Posi el ratolí al punt desitjat per veure el nom de l'estació.

Feu clic per veure les observacions i els pronòstics meteorològics.

Per canviar el mapa: feu clic els botons verds amb una creu de color negre per apropar; al botó verd amb un guió per allunyar la imatge; o en les fletxes verdes per a mapes adjacents.


METAR-TAF: